Time;durP1;ratioP1;P1;durP2;ratioP2;P2;SDS_P1;SDS_P2;PMS_P1;PMS_P2;Temp;Humidity;BMP_temperature;BMP_pressure;BME280_temperature;BME280_humidity;BME280_pressure;Samples;Min_cycle;Max_cycle;Signal;HPM_P1;HPM_P2
2022/06/23 00:01:03;;;;;;;6.85;4.30;;;;;;;17.65;93.05;100826.00;5083786;28;20029;-77
2022/06/23 00:03:34;;;;;;;7.30;4.30;;;;;;;17.55;94.67;100825.28;5092982;28;20036;-77
2022/06/23 00:06:03;;;;;;;14.68;3.90;;;;;;;17.55;94.89;100828.91;5074918;28;20032;-77
2022/06/23 00:08:28;;;;;;;9.27;4.03;;;;;;;17.58;94.66;100820.25;5083721;28;20495;-77
2022/06/23 00:10:59;;;;;;;10.05;4.10;;;;;;;17.58;95.53;100824.94;5088358;28;20028;-77
2022/06/23 00:13:25;;;;;;;5.70;4.10;;;;;;;17.47;97.08;100817.78;5072991;28;20054;-77
2022/06/23 00:15:53;;;;;;;7.28;4.15;;;;;;;17.41;98.44;100807.38;5087848;28;20040;-77
2022/06/23 00:18:22;;;;;;;13.48;4.35;;;;;;;17.45;98.21;100817.97;5081018;28;20040;-77
2022/06/23 00:21:01;;;;;;;9.45;4.28;;;;;;;17.52;97.61;100812.63;5089396;28;20028;-78
2022/06/23 00:23:40;;;;;;;8.70;4.60;;;;;;;17.39;99.44;100815.84;5091115;28;20035;-78
2022/06/23 00:26:20;;;;;;;13.70;5.10;;;;;;;17.37;100.00;100808.78;5081694;28;20024;-78
2022/06/23 00:28:52;;;;;;;7.93;4.90;;;;;;;17.35;100.00;100811.72;5091190;28;20032;-78
2022/06/23 00:31:30;;;;;;;15.65;4.88;;;;;;;17.34;100.00;100817.41;5073978;28;20118;-78
2022/06/23 00:34:01;;;;;;;9.55;5.40;;;;;;;17.32;100.00;100814.81;5081835;28;20476;-78
2022/06/23 00:36:41;;;;;;;9.82;4.70;;;;;;;17.27;100.00;100818.06;5087261;28;20034;-78
2022/06/23 00:39:26;;;;;;;10.90;5.20;;;;;;;17.16;100.00;100820.25;5084811;28;20031;-78
2022/06/23 00:41:52;;;;;;;8.85;5.60;;;;;;;17.17;100.00;100805.41;5074568;28;20079;-78
2022/06/23 00:44:34;;;;;;;13.90;5.43;;;;;;;17.07;100.00;100806.38;5075186;28;20048;-78
2022/06/23 00:47:05;;;;;;;15.20;6.57;;;;;;;17.03;100.00;100806.88;5086387;28;20032;-78
2022/06/23 00:49:45;;;;;;;14.40;5.68;;;;;;;16.97;100.00;100811.19;5078789;28;20037;-78
2022/06/23 00:52:29;;;;;;;9.45;5.20;;;;;;;16.97;100.00;100805.66;5080551;28;20051;-78
2022/06/23 00:55:00;;;;;;;13.38;6.35;;;;;;;16.90;100.00;100793.50;5086715;28;20107;-78
2022/06/23 00:57:49;;;;;;;11.38;5.38;;;;;;;16.94;100.00;100783.84;5083246;28;20036;-78
2022/06/23 01:00:28;;;;;;;10.30;5.97;;;;;;;16.90;100.00;100791.63;5068046;28;20032;-78
2022/06/23 01:02:57;;;;;;;11.75;6.38;;;;;;;16.94;100.00;100785.72;5081345;28;20032;-77
2022/06/23 01:05:30;;;;;;;22.67;6.72;;;;;;;16.84;100.00;100780.28;5085626;28;20028;-77
2022/06/23 01:08:05;;;;;;;13.30;5.95;;;;;;;16.89;100.00;100783.50;5091184;28;20108;-77
2022/06/23 01:10:55;;;;;;;11.82;6.03;;;;;;;16.88;100.00;100796.44;5086189;28;20036;-77
2022/06/23 01:13:31;;;;;;;11.05;6.72;;;;;;;16.92;100.00;100794.19;5082680;28;20040;-77
2022/06/23 01:16:07;;;;;;;18.27;6.97;;;;;;;16.90;100.00;100799.03;5060553;28;20059;-77
2022/06/23 01:18:42;;;;;;;10.77;6.10;;;;;;;16.90;100.00;100801.78;5084022;28;20056;-77
2022/06/23 01:21:28;;;;;;;13.60;6.55;;;;;;;16.89;100.00;100797.31;5073654;28;20094;-77
2022/06/23 01:23:54;;;;;;;18.65;6.97;;;;;;;16.89;100.00;100797.31;5078244;28;20071;-77
2022/06/23 01:26:23;;;;;;;16.88;7.22;;;;;;;16.82;100.00;100791.53;5091000;28;20063;-77
2022/06/23 01:28:56;;;;;;;18.35;7.68;;;;;;;16.77;100.00;100787.50;5071693;28;20056;-76
2022/06/23 01:31:28;;;;;;;14.30;7.13;;;;;;;16.81;100.00;100784.25;5075515;28;20067;-76
2022/06/23 01:34:15;;;;;;;16.95;7.53;;;;;;;16.79;100.00;100782.69;5074790;28;20032;-77
2022/06/23 01:36:57;;;;;;;13.00;7.70;;;;;;;16.75;100.00;100786.81;5079604;28;20690;-77
2022/06/23 01:39:42;;;;;;;13.88;7.78;;;;;;;16.76;100.00;100789.44;5085361;28;20036;-77
2022/06/23 01:42:25;;;;;;;21.27;8.25;;;;;;;16.68;100.00;100784.69;5087290;28;20479;-77
2022/06/23 01:44:56;;;;;;;;;;;;;;;16.65;100.00;100787.78;5085869;28;20429;-77
2022/06/23 01:47:37;;;;;;;17.98;8.65;;;;;;;16.56;100.00;100798.94;5080623;28;20295;-77
2022/06/23 01:50:30;;;;;;;15.88;8.77;;;;;;;16.50;100.00;100794.97;5076303;28;20435;-77
2022/06/23 01:53:18;;;;;;;17.92;9.07;;;;;;;16.54;100.00;100799.13;5041636;28;20036;-77
2022/06/23 01:55:53;;;;;;;29.13;10.02;;;;;;;16.53;100.00;100791.88;5079202;28;20089;-77
2022/06/23 01:58:23;;;;;;;21.00;9.73;;;;;;;16.47;100.00;100781.47;5073630;28;20036;-77
2022/06/23 02:00:53;;;;;;;24.80;9.88;;;;;;;16.48;100.00;100788.72;5076667;28;20150;-76
2022/06/23 02:03:25;;;;;;;25.55;11.00;;;;;;;16.38;100.00;100787.94;5063169;28;20476;-76
2022/06/23 02:05:52;;;;;;;21.48;10.43;;;;;;;16.42;100.00;100787.47;5081558;28;20024;-77
2022/06/23 02:08:32;;;;;;;18.45;10.32;;;;;;;16.41;100.00;100790.38;5093697;28;20028;-77
2022/06/23 02:11:07;;;;;;;21.13;10.00;;;;;;;16.35;100.00;100787.25;5079330;28;20060;-77
2022/06/23 02:14:06;;;;;;;23.80;10.50;;;;;;;16.29;100.00;100790.63;5073333;28;20040;-77
2022/06/23 02:16:57;;;;;;;28.10;11.25;;;;;;;16.37;100.00;100787.09;5083209;28;20517;-77
2022/06/23 02:19:58;;;;;;;21.00;10.75;;;;;;;16.29;100.00;100787.03;5074011;28;20104;-76
2022/06/23 02:22:44;;;;;;;24.20;10.70;;;;;;;16.44;100.00;100790.91;5054118;28;20565;-78
2022/06/23 02:25:15;;;;;;;23.00;12.20;;;;;;;16.38;100.00;100787.94;5081246;28;20442;-76
2022/06/23 02:27:47;;;;;;;34.60;12.17;;;;;;;16.40;100.00;100783.13;5080256;28;20032;-78
2022/06/23 02:30:27;;;;;;;21.80;11.68;;;;;;;16.38;100.00;100782.41;5096213;28;20024;-77
2022/06/23 02:33:14;;;;;;;34.05;11.55;;;;;;;16.35;100.00;100784.47;5088678;28;20086;-77
2022/06/23 02:36:01;;;;;;;24.45;11.55;;;;;;;16.37;100.00;100787.09;5081795;28;20070;-77
2022/06/23 02:38:42;;;;;;;23.52;11.93;;;;;;;16.30;100.00;100791.53;5076340;28;20033;-77
2022/06/23 02:41:15;;;;;;;24.48;11.70;;;;;;;16.30;100.00;100784.09;5058887;28;20521;-77
2022/06/23 02:43:45;;;;;;;27.85;12.70;;;;;;;16.22;100.00;100775.75;5088351;28;20484;-77
2022/06/23 02:46:34;;;;;;;25.63;12.45;;;;;;;16.16;100.00;100779.16;5094806;28;20032;-77
2022/06/23 02:49:24;;;;;;;27.02;13.18;;;;;;;16.14;100.00;100786.72;5081632;28;20028;-77
2022/06/23 02:52:00;;;;;;;24.17;12.52;;;;;;;16.09;100.00;100781.69;5077914;28;20382;-77
2022/06/23 02:55:04;;;;;;;25.08;11.85;;;;;;;16.06;100.00;100783.91;5077740;28;20032;-77
2022/06/23 02:57:49;;;;;;;27.48;13.30;;;;;;;16.01;100.00;100787.13;5045803;28;20046;-78
2022/06/23 03:00:15;;;;;;;31.20;14.23;;;;;;;15.98;100.00;100777.25;5083172;28;20023;-77
2022/06/23 03:03:11;;;;;;;28.52;14.07;;;;;;;15.95;100.00;100769.31;5072688;28;20032;-77
2022/06/23 03:05:57;;;;;;;34.40;15.48;;;;;;;15.92;100.00;100783.44;5091994;28;20413;-77
2022/06/23 03:08:38;;;;;;;33.60;15.80;;;;;;;15.86;100.00;100769.41;5093282;28;20032;-77
2022/06/23 03:11:07;;;;;;;37.67;14.93;;;;;;;15.91;100.00;100770.66;5085326;28;20107;-76
2022/06/23 03:13:45;;;;;;;30.38;13.25;;;;;;;15.93;100.00;100771.34;5059301;28;20073;-76
2022/06/23 03:16:45;;;;;;;27.15;12.82;;;;;;;15.91;100.00;100773.41;5093081;28;20038;-76
2022/06/23 03:19:19;;;;;;;30.13;13.23;;;;;;;15.93;100.00;100762.19;5013491;28;20135;-77
2022/06/23 03:22:22;;;;;;;29.08;13.02;;;;;;;15.86;100.00;100766.63;5083479;28;20024;-77
2022/06/23 03:25:10;;;;;;;27.98;12.75;;;;;;;15.80;100.00;100773.63;5019855;28;20075;-77
2022/06/23 03:27:47;;;;;;;40.80;14.10;;;;;;;15.70;100.00;100765.41;5049804;28;20046;-77
2022/06/23 03:30:22;;;;;;;30.77;12.85;;;;;;;15.74;100.00;100764.06;5092344;28;20024;-77
2022/06/23 03:32:54;;;;;;;27.17;12.50;;;;;;;15.85;100.00;100773.16;5081184;28;20150;-77
2022/06/23 03:35:35;;;;;;;29.23;11.68;;;;;;;15.75;100.00;100760.28;5063007;28;20024;-77
2022/06/23 03:41:36;;;;;;;27.05;12.93;;;;;;;15.66;100.00;100757.59;5073398;28;20032;-77
2022/06/23 03:41:39;;;;;;;29.67;13.43;;;;;;;15.73;100.00;100748.53;5085134;28;20195;-77
2022/06/23 03:44:20;;;;;;;24.45;12.75;;;;;;;15.70;100.00;100761.78;5075039;28;20476;-77
2022/06/23 03:46:59;;;;;;;29.25;12.40;;;;;;;15.71;100.00;100764.38;5065270;28;20131;-77
2022/06/23 03:49:38;;;;;;;28.52;12.68;;;;;;;15.61;100.00;100786.53;5088595;28;20024;-77
2022/06/23 03:52:14;;;;;;;28.70;12.45;;;;;;;15.70;100.00;100772.81;5086539;28;20421;-77
2022/06/23 03:55:06;;;;;;;26.60;11.93;;;;;;;15.76;100.00;100772.25;5092751;28;20032;-76
2022/06/23 03:57:43;;;;;;;27.23;11.80;;;;;;;15.82;100.00;100774.34;5074836;28;20044;-78
2022/06/23 04:00:26;;;;;;;28.25;11.10;;;;;;;15.86;100.00;100783.19;5075110;28;20024;-77
2022/06/23 04:03:12;;;;;;;28.25;10.15;;;;;;;15.89;100.00;100778.22;5075236;28;20032;-77
2022/06/23 04:05:56;;;;;;;24.15;9.95;;;;;;;15.99;100.00;100769.84;5082455;28;20032;-77
2022/06/23 04:08:26;;;;;;;24.10;10.27;;;;;;;15.83;100.00;100778.00;5077987;28;20044;-77
2022/06/23 04:10:54;;;;;;;21.55;9.73;;;;;;;15.76;100.00;100773.09;5080231;28;20089;-77
2022/06/23 04:13:23;;;;;;;26.88;10.70;;;;;;;15.85;100.00;100789.75;5080477;28;20108;-77
2022/06/23 04:15:52;;;;;;;24.13;10.27;;;;;;;15.82;100.00;100771.59;5072285;28;20487;-77
2022/06/23 04:18:22;;;;;;;27.48;10.55;;;;;;;15.84;100.00;100775.06;5073076;28;20480;-77
2022/06/23 04:21:01;;;;;;;30.40;10.50;;;;;;;15.80;100.00;100773.63;5085931;28;20070;-79
2022/06/23 04:23:34;;;;;;;21.95;9.85;;;;;;;15.85;100.00;100759.38;5091682;28;20390;-78
2022/06/23 04:26:18;;;;;;;26.50;9.32;;;;;;;15.85;100.00;100767.66;5086556;28;20033;-78
2022/06/23 04:28:54;;;;;;;23.05;9.07;;;;;;;15.96;100.00;100757.22;5089238;28;20476;-78
2022/06/23 04:31:32;;;;;;;23.17;9.23;;;;;;;16.07;100.00;100769.03;5086676;28;20063;-77
2022/06/23 04:33:58;;;;;;;25.23;8.43;;;;;;;16.24;100.00;100768.16;5085515;28;20503;-77
2022/06/23 04:36:27;;;;;;;19.40;8.15;;;;;;;16.31;100.00;100769.22;5082525;28;20105;-77
2022/06/23 04:38:59;;;;;;;18.67;9.48;;;;;;;16.32;100.00;100778.41;5082720;28;20032;-77
2022/06/23 04:41:33;;;;;;;35.08;9.10;;;;;;;16.23;100.00;100779.38;5068324;28;20081;-77
2022/06/23 04:44:05;;;;;;;18.60;9.18;;;;;;;16.41;100.00;100771.91;5076223;28;20055;-77
2022/06/23 04:46:37;;;;;;;27.40;9.70;;;;;;;16.48;100.00;100781.28;5078350;28;20032;-77
2022/06/23 04:49:07;;;;;;;21.75;9.00;;;;;;;16.46;100.00;100774.19;5079981;28;20032;-77
2022/06/23 04:51:39;;;;;;;16.13;9.13;;;;;;;16.62;100.00;100766.00;5069265;28;20066;-77
2022/06/23 04:54:11;;;;;;;20.17;9.15;;;;;;;16.69;100.00;100774.50;5087080;28;20039;-77
2022/06/23 04:56:49;;;;;;;19.35;8.75;;;;;;;16.73;100.00;100776.78;5080316;28;20074;-77
2022/06/23 04:59:30;;;;;;;14.82;8.20;;;;;;;16.86;100.00;100775.50;5081376;28;20039;-76
2022/06/23 05:02:00;;;;;;;24.08;9.52;;;;;;;16.89;100.00;100764.97;5088230;28;20032;-76
2022/06/23 05:04:37;;;;;;;26.98;9.27;;;;;;;16.92;100.00;100771.22;5091340;28;20070;-77
2022/06/23 05:07:03;;;;;;;18.42;9.35;;;;;;;16.96;100.00;100772.63;5096627;28;20032;-77
2022/06/23 05:09:39;;;;;;;19.52;9.85;;;;;;;17.03;100.00;100780.06;5053586;28;20034;-77
2022/06/23 05:12:20;;;;;;;21.50;9.63;;;;;;;17.04;100.00;100767.13;5077089;28;20032;-75
2022/06/23 05:14:47;;;;;;;27.77;9.77;;;;;;;17.00;100.00;100780.41;5075882;28;20032;-75
2022/06/23 05:17:19;;;;;;;25.65;10.45;;;;;;;17.13;100.00;100779.94;5084366;28;20043;-75
2022/06/23 05:19:46;;;;;;;18.67;10.65;;;;;;;17.24;100.00;100776.88;5081491;28;20024;-76
2022/06/23 05:22:18;;;;;;;16.67;9.48;;;;;;;17.60;98.89;100778.56;5087584;28;20408;-76
2022/06/23 05:24:46;;;;;;;26.67;8.85;;;;;;;17.96;96.00;100776.41;5081308;28;20059;-76
2022/06/23 05:27:18;;;;;;;21.65;10.73;;;;;;;18.25;94.29;100780.56;5109969;28;20494;-77
2022/06/23 05:29:50;;;;;;;22.60;10.30;;;;;;;18.78;92.43;100781.00;5108217;28;20416;-77
2022/06/23 05:32:31;;;;;;;18.95;9.80;;;;;;;19.01;90.19;100767.25;5116015;28;20501;-76
2022/06/23 05:35:04;;;;;;;24.67;10.05;;;;;;;18.96;89.66;100772.50;5087019;28;20105;-78
2022/06/23 05:37:49;;;;;;;19.33;10.00;;;;;;;19.31;88.81;100777.72;5080682;28;20060;-77
2022/06/23 05:40:24;;;;;;;19.00;10.00;;;;;;;19.39;87.86;100773.00;5086472;28;20116;-77
2022/06/23 05:42:54;;;;;;;27.38;9.95;;;;;;;19.98;87.24;100772.47;5074767;28;20106;-77
2022/06/23 05:45:26;;;;;;;21.55;9.15;;;;;;;20.47;84.00;100762.84;5058561;28;20039;-77
2022/06/23 05:47:54;;;;;;;19.90;9.77;;;;;;;20.31;83.93;100776.91;5074918;28;20491;-77
2022/06/23 05:50:26;;;;;;;21.15;10.30;;;;;;;20.24;85.67;100782.34;5075858;28;20031;-77
2022/06/23 05:53:03;;;;;;;23.63;9.52;;;;;;;20.83;81.21;100781.63;5083701;28;20032;-77
2022/06/23 05:55:48;;;;;;;20.00;9.93;;;;;;;20.90;81.74;100788.16;5095569;28;20043;-77
2022/06/23 05:58:33;;;;;;;18.58;11.00;;;;;;;20.78;82.01;100781.34;5094666;28;20043;-77
2022/06/23 06:01:23;;;;;;;26.17;10.50;;;;;;;21.48;79.89;100785.56;5095963;28;20114;-77
2022/06/23 06:04:32;;;;;;;19.83;10.82;;;;;;;21.62;78.49;100783.78;5093807;28;20028;-77
2022/06/23 06:06:58;;;;;;;21.85;9.50;;;;;;;21.92;77.24;100778.13;5066220;28;20033;-77
2022/06/23 06:09:37;;;;;;;25.95;10.23;;;;;;;22.14;76.89;100775.34;5093730;28;20028;-77
2022/06/23 06:12:17;;;;;;;26.42;11.35;;;;;;;21.97;78.20;100777.53;5094641;28;20090;-77
2022/06/23 06:14:51;;;;;;;22.30;11.43;;;;;;;22.45;75.94;100772.22;5094660;28;20039;-77
2022/06/23 06:17:24;;;;;;;25.25;12.10;;;;;;;22.32;77.55;100759.03;5083319;28;20029;-77
2022/06/23 06:19:53;;;;;;;24.25;12.13;;;;;;;23.23;75.16;100771.25;5075440;28;20423;-77
2022/06/23 06:22:30;;;;;;;29.52;11.48;;;;;;;23.17;75.17;100777.66;5074345;28;20028;-77
2022/06/23 06:24:57;;;;;;;21.45;11.48;;;;;;;23.53;73.48;100768.16;5075323;28;20419;-77
2022/06/23 06:27:23;;;;;;;18.00;11.05;;;;;;;23.18;75.05;100780.25;5074102;28;20028;-77
2022/06/23 06:29:50;;;;;;;26.77;9.95;;;;;;;23.65;74.42;100774.88;5073339;28;20037;-77
2022/06/23 06:32:21;;;;;;;20.95;9.90;;;;;;;23.88;73.01;100774.53;5073992;28;20055;-77
2022/06/23 06:34:54;;;;;;;28.25;10.10;;;;;;;23.98;73.98;100776.94;5075370;28;20360;-77
2022/06/23 06:37:23;;;;;;;18.17;9.57;;;;;;;24.10;74.19;100777.16;5075283;28;20028;-77
2022/06/23 06:39:57;;;;;;;26.98;9.98;;;;;;;24.04;74.72;100781.69;5074691;28;20078;-77
2022/06/23 06:42:31;;;;;;;28.55;9.85;;;;;;;24.77;72.25;100780.88;5074894;28;20040;-77
2022/06/23 06:45:02;;;;;;;24.25;9.50;;;;;;;24.22;72.45;100775.47;5074075;28;20033;-76
2022/06/23 06:47:32;;;;;;;30.17;8.77;;;;;;;24.94;71.68;100770.06;5057294;28;20119;-77
2022/06/23 06:50:15;;;;;;;21.40;8.93;;;;;;;24.50;73.35;100768.81;5073829;28;20024;-76
2022/06/23 06:52:40;;;;;;;23.95;9.55;;;;;;;24.89;74.59;100770.72;5073425;28;20038;-76
2022/06/23 06:55:14;;;;;;;23.85;10.35;;;;;;;25.51;70.65;100761.91;5074216;28;20032;-76
2022/06/23 06:57:45;;;;;;;28.55;10.73;;;;;;;25.65;70.25;100768.34;5072859;28;20526;-76
2022/06/23 07:00:27;;;;;;;26.05;10.65;;;;;;;25.44;72.20;100781.56;5072866;28;20025;-76
2022/06/23 07:03:02;;;;;;;23.88;9.55;;;;;;;26.45;67.32;100781.00;5074035;28;20113;-76
2022/06/23 07:05:40;;;;;;;25.55;9.25;;;;;;;25.68;70.98;100773.50;5073694;28;20472;-76
2022/06/23 07:08:24;;;;;;;24.13;9.30;;;;;;;26.12;70.06;100774.56;5081232;28;20463;-76
2022/06/23 07:10:54;;;;;;;23.15;8.68;;;;;;;26.93;67.75;100775.59;5092994;28;20035;-76
2022/06/23 07:13:39;;;;;;;17.40;8.43;;;;;;;26.24;67.98;100760.66;5093087;28;20024;-76
2022/06/23 07:16:12;;;;;;;31.02;9.15;;;;;;;25.75;71.59;100770.66;5093027;28;20043;-76
2022/06/23 07:18:41;;;;;;;26.92;8.57;;;;;;;26.26;69.30;100775.31;5093245;28;20032;-76
2022/06/23 07:21:10;;;;;;;18.42;9.05;;;;;;;26.55;67.93;100772.94;5092945;28;20024;-76
2022/06/23 07:23:49;;;;;;;29.55;9.35;;;;;;;26.79;67.31;100779.63;5075772;28;20055;-76
2022/06/23 07:26:26;;;;;;;22.73;8.98;;;;;;;26.54;68.20;100783.28;5086131;28;20071;-76
2022/06/23 07:29:11;;;;;;;31.00;10.30;;;;;;;26.63;67.67;100778.25;5073728;28;20549;-76
2022/06/23 07:31:49;;;;;;;23.75;10.95;;;;;;;26.87;66.83;100781.28;5055383;28;20714;-76
2022/06/23 07:34:17;;;;;;;27.48;10.20;;;;;;;26.27;69.36;100784.59;5055854;28;20051;-76
2022/06/23 07:36:58;;;;;;;25.67;9.73;;;;;;;27.35;64.70;100765.66;5076076;28;20049;-73
2022/06/23 07:39:34;;;;;;;29.88;10.38;;;;;;;27.35;64.75;100774.09;5078206;28;20101;-74
2022/06/23 07:42:12;;;;;;;21.08;9.52;;;;;;;27.44;64.93;100762.28;5073765;28;20032;-74
2022/06/23 07:44:45;;;;;;;23.88;9.75;;;;;;;28.13;62.74;100767.63;5079055;28;20032;-74
2022/06/23 07:47:11;;;;;;;24.33;10.02;;;;;;;28.29;62.32;100762.41;5083012;28;20028;-74
2022/06/23 07:49:36;;;;;;;23.25;9.10;;;;;;;28.28;63.86;100766.31;5072211;28;20044;-75
2022/06/23 07:52:03;;;;;;;25.08;10.13;;;;;;;29.80;57.03;100758.91;5083015;28;20091;-74
2022/06/23 07:54:30;;;;;;;26.02;10.00;;;;;;;29.35;59.51;100765.25;5102003;28;20051;-75
2022/06/23 07:56:56;;;;;;;26.35;9.45;;;;;;;28.87;61.17;100761.63;5076370;28;20036;-75
2022/06/23 07:59:33;;;;;;;34.95;9.90;;;;;;;28.80;62.39;100758.06;5079622;28;20043;-75
2022/06/23 08:02:01;;;;;;;25.77;8.88;;;;;;;29.43;60.80;100755.56;5085545;28;20024;-75
2022/06/23 08:04:36;;;;;;;24.55;10.02;;;;;;;29.02;61.49;100758.28;5084051;28;20169;-76
2022/06/23 08:07:06;;;;;;;21.15;9.98;;;;;;;28.74;62.50;100759.91;5103323;28;20024;-76
2022/06/23 08:09:37;;;;;;;27.42;11.88;;;;;;;29.25;60.92;100765.03;5090540;28;20093;-75
2022/06/23 08:18:26;;;;;;;23.33;9.68;;;;;;;29.73;59.15;100755.34;5029082;28;20029;-76
2022/06/23 08:21:20;;;;;;;33.45;11.38;;;;;;;30.07;60.48;100761.09;5062289;28;20133;-76
2022/06/23 08:23:59;;;;;;;31.63;10.35;;;;;;;30.37;58.93;100758.00;5068309;28;20059;-76
2022/06/23 08:26:26;;;;;;;24.73;9.77;;;;;;;30.21;60.46;100759.66;5091109;28;20104;-76
2022/06/23 08:28:57;;;;;;;27.10;10.30;;;;;;;29.55;61.52;100758.34;5080376;28;20040;-76
2022/06/23 08:31:25;;;;;;;26.45;9.48;;;;;;;30.43;60.58;100758.94;5067926;28;20036;-76
2022/06/23 08:33:51;;;;;;;23.35;8.15;;;;;;;30.77;59.25;100750.44;5073882;28;20047;-75
2022/06/23 08:36:22;;;;;;;24.13;8.10;;;;;;;30.50;58.79;100753.97;5093099;28;20403;-75
2022/06/23 08:39:02;;;;;;;19.70;7.28;;;;;;;30.77;57.12;100761.75;5091201;28;20073;-75
2022/06/23 08:41:50;;;;;;;19.30;7.32;;;;;;;31.06;56.97;100754.03;5083798;28;20471;-76
2022/06/23 08:44:34;;;;;;;20.70;6.40;;;;;;;30.81;57.31;100750.78;5076124;28;20103;-75
2022/06/23 08:47:16;;;;;;;28.67;6.35;;;;;;;29.74;57.62;100750.53;5088037;28;20119;-75
2022/06/23 08:50:14;;;;;;;25.95;7.40;;;;;;;30.40;55.81;100756.63;5090716;28;20026;-76
2022/06/23 08:52:48;;;;;;;22.88;5.50;;;;;;;30.14;57.65;100752.44;5074938;28;20035;-75
2022/06/23 08:55:58;;;;;;;22.27;5.88;;;;;;;29.70;58.94;100750.19;5083920;28;20024;-75
2022/06/23 08:58:33;;;;;;;26.60;5.63;;;;;;;29.94;58.81;100748.16;5074481;28;20045;-74
2022/06/23 09:01:06;;;;;;;19.20;4.95;;;;;;;29.90;57.70;100751.75;5071517;28;20024;-74
2022/06/23 09:03:50;;;;;;;19.00;5.07;;;;;;;30.33;56.59;100751.09;5075695;28;20028;-75
2022/06/23 09:06:30;;;;;;;15.82;5.40;;;;;;;31.44;54.04;100731.59;5071299;28;20028;-75
2022/06/23 09:09:27;;;;;;;22.60;5.22;;;;;;;30.73;56.65;100743.56;5080747;28;20058;-75
2022/06/23 09:12:29;;;;;;;23.60;5.63;;;;;;;30.51;55.99;100732.22;5078895;28;20051;-76
2022/06/23 09:15:16;;;;;;;17.13;4.75;;;;;;;30.36;56.27;100736.47;5072616;28;20032;-76
2022/06/23 09:18:02;;;;;;;29.10;5.15;;;;;;;29.99;56.68;100731.31;5076322;28;20025;-76
2022/06/23 09:21:19;;;;;;;24.05;4.47;;;;;;;30.26;56.63;100735.44;5076056;28;20388;-76
2022/06/23 09:24:15;;;;;;;21.15;4.93;;;;;;;30.55;56.48;100733.41;4997752;28;20554;-76
2022/06/23 09:26:50;;;;;;;16.85;4.63;;;;;;;30.52;56.37;100736.78;5075083;28;20033;-76
2022/06/23 09:29:22;;;;;;;20.33;4.20;;;;;;;30.92;54.99;100745.00;5074826;28;20028;-76
2022/06/23 09:31:56;;;;;;;24.13;4.65;;;;;;;30.50;55.94;100722.91;5074944;28;20059;-76
2022/06/23 09:34:21;;;;;;;14.82;4.85;;;;;;;30.98;56.08;100720.53;5058245;28;20044;-75
2022/06/23 09:37:10;;;;;;;13.85;4.72;;;;;;;30.80;55.54;100718.81;5075673;28;20043;-75
2022/06/23 09:40:24;;;;;;;22.13;5.47;;;;;;;30.72;56.58;100717.28;5073795;28;20060;-75
2022/06/23 09:43:27;;;;;;;26.23;5.35;;;;;;;30.84;55.03;100719.16;5066434;28;20044;-76
2022/06/23 09:46:09;;;;;;;16.20;4.72;;;;;;;31.60;52.89;100719.38;5074419;28;20055;-75
2022/06/23 09:48:57;;;;;;;26.95;5.10;;;;;;;31.48;54.04;100712.97;5074282;28;20021;-76
2022/06/23 09:51:50;;;;;;;22.50;4.68;;;;;;;31.78;52.70;100722.94;5075546;28;20044;-75
2022/06/23 09:54:25;;;;;;;24.25;4.20;;;;;;;31.42;53.05;100717.72;5074204;28;20442;-75
2022/06/23 09:57:24;;;;;;;25.63;4.05;;;;;;;30.85;55.29;100713.25;5075446;28;20024;-75
2022/06/23 10:00:02;;;;;;;21.98;4.60;;;;;;;31.29;54.75;100710.47;5074051;28;20507;-76
2022/06/23 10:03:02;;;;;;;26.17;4.30;;;;;;;31.22;55.24;100707.00;5057468;28;20107;-76
2022/06/23 10:05:44;;;;;;;29.38;5.05;;;;;;;31.03;55.72;100712.13;5075073;28;20056;-76
2022/06/23 10:08:09;;;;;;;;;;;;;;;31.03;54.54;100717.78;5084733;28;20024;-75
2022/06/23 10:10:57;;;;;;;27.50;5.15;;;;;;;30.77;56.87;100719.34;5094206;28;20334;-76
2022/06/23 10:13:28;;;;;;;22.70;4.40;;;;;;;31.72;54.07;100724.88;5094198;28;20078;-76
2022/06/23 10:16:29;;;;;;;17.90;5.30;;;;;;;31.02;55.31;100713.22;5094158;28;20024;-75
2022/06/23 10:19:27;;;;;;;23.75;5.13;;;;;;;31.48;53.82;100718.63;5089294;28;20042;-76
2022/06/23 10:22:22;;;;;;;23.35;5.20;;;;;;;31.05;55.01;100720.34;5095229;28;20119;-77
2022/06/23 10:25:13;;;;;;;22.73;5.32;;;;;;;30.74;56.20;100717.03;5094079;28;20031;-76
2022/06/23 10:27:54;;;;;;;21.10;5.22;;;;;;;31.36;54.25;100721.59;5092748;28;20036;-75
2022/06/23 10:30:44;;;;;;;16.10;5.05;;;;;;;31.40;55.23;100710.59;5093685;28;20060;-76
2022/06/23 10:33:32;;;;;;;25.27;4.97;;;;;;;31.75;54.46;100717.84;5093677;28;20047;-76
2022/06/23 10:36:07;;;;;;;24.02;4.97;;;;;;;30.81;54.93;100714.03;5093731;28;20035;-76
2022/06/23 10:38:52;;;;;;;20.70;4.78;;;;;;;31.27;55.68;100707.06;5094767;28;20062;-76
2022/06/23 10:41:21;;;;;;;30.00;5.18;;;;;;;31.51;53.32;100704.81;5094798;28;20444;-76
2022/06/23 10:44:10;;;;;;;20.10;5.15;;;;;;;30.95;55.50;100710.59;5094389;28;20113;-76
2022/06/23 10:46:42;;;;;;;27.10;4.90;;;;;;;31.37;53.32;100706.34;5093531;28;20031;-76
2022/06/23 10:49:13;;;;;;;22.38;5.13;;;;;;;31.73;53.09;100708.75;5093387;28;20024;-76
2022/06/23 10:52:07;;;;;;;17.35;4.70;;;;;;;31.40;53.58;100696.44;5093377;28;20043;-76
2022/06/23 10:55:10;;;;;;;25.00;5.30;;;;;;;31.40;53.99;100699.28;5094818;28;20036;-76
2022/06/23 10:58:26;;;;;;;28.88;6.40;;;;;;;31.01;54.59;100693.69;5093141;28;20051;-75
2022/06/23 11:01:14;;;;;;;32.10;5.60;;;;;;;30.93;55.09;100692.16;4996034;28;20030;-76
2022/06/23 11:03:59;;;;;;;31.70;6.05;;;;;;;31.39;55.30;100686.25;4979816;28;20022;-76
2022/06/23 11:06:46;;;;;;;22.33;5.93;;;;;;;30.87;56.18;100685.56;5051095;28;20130;-76
2022/06/23 11:09:46;;;;;;;27.98;6.07;;;;;;;30.52;58.13;100678.28;5092845;28;20031;-76
2022/06/23 11:12:25;;;;;;;18.80;6.07;;;;;;;31.28;55.53;100688.94;5092935;28;20032;-76
2022/06/23 11:15:26;;;;;;;18.13;5.13;;;;;;;31.28;55.05;100691.78;5093141;28;20060;-76
2022/06/23 11:18:06;;;;;;;18.53;6.10;;;;;;;31.53;53.64;100696.06;5092855;28;20028;-76
2022/06/23 11:20:44;;;;;;;22.23;5.97;;;;;;;30.99;55.34;100682.63;5075781;28;20107;-76
2022/06/23 11:23:49;;;;;;;27.88;6.18;;;;;;;30.89;56.76;100683.31;5092803;28;20405;-76
2022/06/23 11:26:30;;;;;;;27.48;6.20;;;;;;;31.09;56.58;100685.63;5062681;28;20093;-76
2022/06/23 11:28:55;;;;;;;21.50;6.22;;;;;;;30.42;57.01;100678.97;5092660;28;20024;-76
2022/06/23 11:31:40;;;;;;;22.00;6.30;;;;;;;30.49;57.72;100678.78;5093817;28;20055;-76
2022/06/23 11:34:36;;;;;;;22.88;6.13;;;;;;;30.06;59.36;100663.38;5092492;28;20278;-76
2022/06/23 11:37:32;;;;;;;30.27;5.50;;;;;;;30.07;61.49;100659.41;5075561;28;20387;-76
2022/06/23 11:40:35;;;;;;;18.15;5.18;;;;;;;30.82;55.61;100664.84;5092166;28;20039;-76
2022/06/23 11:43:09;;;;;;;21.33;5.22;;;;;;;31.06;53.62;100672.00;5093459;28;20543;-75
2022/06/23 11:46:00;;;;;;;24.80;5.55;;;;;;;30.85;55.02;100673.66;5092443;28;20032;-76
2022/06/23 11:48:41;;;;;;;16.80;4.28;;;;;;;31.26;53.62;100670.53;5092306;28;20064;-76
2022/06/23 11:51:28;;;;;;;24.77;5.00;;;;;;;31.47;52.60;100663.16;5075319;28;20034;-76
2022/06/23 11:54:06;;;;;;;24.90;5.32;;;;;;;31.67;51.14;100660.56;5093403;28;20483;-76
2022/06/23 11:56:50;;;;;;;22.25;5.35;;;;;;;30.96;51.36;100655.75;5092182;28;20094;-76
2022/06/23 11:59:27;;;;;;;18.60;5.18;;;;;;;31.58;51.01;100650.84;5093413;28;20036;-76
2022/06/23 12:01:54;;;;;;;18.25;4.47;;;;;;;31.38;50.11;100651.44;5075336;28;20032;-75
2022/06/23 12:04:48;;;;;;;24.05;4.88;;;;;;;31.40;52.03;100651.16;5093168;28;20028;-77
2022/06/23 12:07:48;;;;;;;20.15;4.93;;;;;;;30.89;51.88;100662.66;5091986;28;20028;-76
2022/06/23 12:10:20;;;;;;;24.20;5.00;;;;;;;30.86;52.69;100644.28;5075203;28;20111;-76
2022/06/23 12:12:49;;;;;;;20.65;4.97;;;;;;;31.06;54.45;100657.00;5091965;28;20028;-75